sensor_id;sensor_type;location;lat;lon;timestamp;P1;durP1;ratioP1;P2;durP2;ratioP2
25359;SDS011;13311;51.386;0.016;2022-08-06T00:04:13;1.58;;;0.70;;
25359;SDS011;13311;51.386;0.016;2022-08-06T00:09:13;1.48;;;0.90;;
25359;SDS011;13311;51.386;0.016;2022-08-06T00:14:14;2.28;;;0.80;;
25359;SDS011;13311;51.386;0.016;2022-08-06T00:19:15;1.20;;;0.63;;
25359;SDS011;13311;51.386;0.016;2022-08-06T00:24:16;2.72;;;0.88;;
25359;SDS011;13311;51.386;0.016;2022-08-06T00:29:17;1.83;;;0.68;;
25359;SDS011;13311;51.386;0.016;2022-08-06T00:34:18;2.58;;;0.90;;
25359;SDS011;13311;51.386;0.016;2022-08-06T00:39:18;2.63;;;1.02;;
25359;SDS011;13311;51.386;0.016;2022-08-06T00:44:19;13.50;;;1.23;;
25359;SDS011;13311;51.386;0.016;2022-08-06T00:49:20;2.22;;;1.20;;
25359;SDS011;13311;51.386;0.016;2022-08-06T00:54:21;3.35;;;1.27;;
25359;SDS011;13311;51.386;0.016;2022-08-06T00:59:22;3.83;;;1.67;;
25359;SDS011;13311;51.386;0.016;2022-08-06T01:04:23;4.05;;;1.88;;
25359;SDS011;13311;51.386;0.016;2022-08-06T01:09:24;5.63;;;1.88;;
25359;SDS011;13311;51.386;0.016;2022-08-06T01:14:26;3.88;;;2.22;;
25359;SDS011;13311;51.386;0.016;2022-08-06T01:19:30;3.28;;;1.70;;
25359;SDS011;13311;51.386;0.016;2022-08-06T01:29:52;4.40;;;2.20;;
25359;SDS011;13311;51.386;0.016;2022-08-06T01:35:04;5.97;;;2.75;;
25359;SDS011;13311;51.386;0.016;2022-08-06T01:40:18;4.22;;;2.35;;
25359;SDS011;13311;51.386;0.016;2022-08-06T01:45:23;4.03;;;2.47;;
25359;SDS011;13311;51.386;0.016;2022-08-06T01:50:32;3.85;;;2.90;;
25359;SDS011;13311;51.386;0.016;2022-08-06T01:55:39;3.85;;;2.63;;
25359;SDS011;13311;51.386;0.016;2022-08-06T02:00:46;8.93;;;3.47;;
25359;SDS011;13311;51.386;0.016;2022-08-06T02:05:51;6.82;;;2.67;;
25359;SDS011;13311;51.386;0.016;2022-08-06T02:10:55;6.35;;;3.47;;
25359;SDS011;13311;51.386;0.016;2022-08-06T02:15:58;4.80;;;4.00;;
25359;SDS011;13311;51.386;0.016;2022-08-06T02:21:09;4.60;;;3.35;;
25359;SDS011;13311;51.386;0.016;2022-08-06T02:26:15;5.45;;;3.50;;
25359;SDS011;13311;51.386;0.016;2022-08-06T02:31:18;7.70;;;3.35;;
25359;SDS011;13311;51.386;0.016;2022-08-06T02:36:38;4.88;;;3.60;;
25359;SDS011;13311;51.386;0.016;2022-08-06T02:52:55;7.72;;;4.43;;
25359;SDS011;13311;51.386;0.016;2022-08-06T03:03:29;10.95;;;4.82;;
25359;SDS011;13311;51.386;0.016;2022-08-06T03:08:32;10.50;;;4.53;;
25359;SDS011;13311;51.386;0.016;2022-08-06T03:13:35;5.93;;;4.45;;
25359;SDS011;13311;51.386;0.016;2022-08-06T03:18:39;4.95;;;4.20;;
25359;SDS011;13311;51.386;0.016;2022-08-06T03:23:43;8.68;;;4.88;;
25359;SDS011;13311;51.386;0.016;2022-08-06T03:28:44;8.23;;;4.97;;
25359;SDS011;13311;51.386;0.016;2022-08-06T03:33:46;9.50;;;6.40;;
25359;SDS011;13311;51.386;0.016;2022-08-06T03:39:01;9.23;;;5.20;;
25359;SDS011;13311;51.386;0.016;2022-08-06T03:44:05;10.73;;;5.00;;
25359;SDS011;13311;51.386;0.016;2022-08-06T03:49:08;6.72;;;5.22;;
25359;SDS011;13311;51.386;0.016;2022-08-06T03:54:15;6.05;;;5.35;;
25359;SDS011;13311;51.386;0.016;2022-08-06T03:59:26;8.15;;;6.38;;
25359;SDS011;13311;51.386;0.016;2022-08-06T04:04:30;10.05;;;6.32;;
25359;SDS011;13311;51.386;0.016;2022-08-06T04:09:32;11.02;;;6.22;;
25359;SDS011;13311;51.386;0.016;2022-08-06T04:14:34;7.32;;;6.13;;
25359;SDS011;13311;51.386;0.016;2022-08-06T04:19:35;9.90;;;6.45;;
25359;SDS011;13311;51.386;0.016;2022-08-06T04:24:36;10.63;;;7.20;;
25359;SDS011;13311;51.386;0.016;2022-08-06T04:29:37;11.05;;;7.15;;
25359;SDS011;13311;51.386;0.016;2022-08-06T04:34:40;9.52;;;6.93;;
25359;SDS011;13311;51.386;0.016;2022-08-06T04:39:42;12.77;;;6.65;;
25359;SDS011;13311;51.386;0.016;2022-08-06T04:44:44;10.10;;;7.00;;
25359;SDS011;13311;51.386;0.016;2022-08-06T04:49:46;9.80;;;7.20;;
25359;SDS011;13311;51.386;0.016;2022-08-06T04:54:47;12.70;;;7.22;;
25359;SDS011;13311;51.386;0.016;2022-08-06T04:59:48;11.00;;;7.97;;
25359;SDS011;13311;51.386;0.016;2022-08-06T05:04:49;10.80;;;7.63;;
25359;SDS011;13311;51.386;0.016;2022-08-06T05:09:57;10.80;;;7.75;;
25359;SDS011;13311;51.386;0.016;2022-08-06T05:15:10;10.30;;;6.65;;
25359;SDS011;13311;51.386;0.016;2022-08-06T05:20:32;10.68;;;5.82;;
25359;SDS011;13311;51.386;0.016;2022-08-06T05:25:36;8.68;;;5.50;;
25359;SDS011;13311;51.386;0.016;2022-08-06T05:30:45;8.02;;;5.47;;
25359;SDS011;13311;51.386;0.016;2022-08-06T05:35:48;8.95;;;6.07;;
25359;SDS011;13311;51.386;0.016;2022-08-06T05:40:49;9.88;;;6.13;;
25359;SDS011;13311;51.386;0.016;2022-08-06T05:45:51;9.07;;;6.43;;
25359;SDS011;13311;51.386;0.016;2022-08-06T05:50:57;8.63;;;7.30;;
25359;SDS011;13311;51.386;0.016;2022-08-06T05:56:18;14.25;;;8.70;;
25359;SDS011;13311;51.386;0.016;2022-08-06T06:01:25;9.05;;;7.57;;
25359;SDS011;13311;51.386;0.016;2022-08-06T06:06:27;9.00;;;7.82;;
25359;SDS011;13311;51.386;0.016;2022-08-06T06:11:28;8.73;;;7.10;;
25359;SDS011;13311;51.386;0.016;2022-08-06T06:16:34;8.15;;;6.93;;
25359;SDS011;13311;51.386;0.016;2022-08-06T06:27:44;11.68;;;8.90;;
25359;SDS011;13311;51.386;0.016;2022-08-06T06:33:06;8.57;;;6.95;;
25359;SDS011;13311;51.386;0.016;2022-08-06T06:44:21;14.00;;;8.05;;
25359;SDS011;13311;51.386;0.016;2022-08-06T06:49:47;8.77;;;7.85;;
25359;SDS011;13311;51.386;0.016;2022-08-06T06:54:59;7.70;;;6.90;;
25359;SDS011;13311;51.386;0.016;2022-08-06T07:00:53;9.48;;;7.13;;
25359;SDS011;13311;51.386;0.016;2022-08-06T07:05:55;8.43;;;7.53;;
25359;SDS011;13311;51.386;0.016;2022-08-06T07:10:58;9.40;;;7.30;;
25359;SDS011;13311;51.386;0.016;2022-08-06T07:16:01;10.40;;;6.68;;
25359;SDS011;13311;51.386;0.016;2022-08-06T07:21:05;9.18;;;7.05;;
25359;SDS011;13311;51.386;0.016;2022-08-06T07:26:06;11.60;;;7.75;;
25359;SDS011;13311;51.386;0.016;2022-08-06T07:31:08;9.20;;;7.05;;
25359;SDS011;13311;51.386;0.016;2022-08-06T07:36:12;9.10;;;6.82;;
25359;SDS011;13311;51.386;0.016;2022-08-06T07:41:17;9.27;;;6.95;;
25359;SDS011;13311;51.386;0.016;2022-08-06T07:46:21;9.63;;;6.75;;
25359;SDS011;13311;51.386;0.016;2022-08-06T07:51:28;11.05;;;7.63;;
25359;SDS011;13311;51.386;0.016;2022-08-06T07:56:34;13.30;;;7.55;;
25359;SDS011;13311;51.386;0.016;2022-08-06T08:01:43;11.85;;;7.53;;
25359;SDS011;13311;51.386;0.016;2022-08-06T08:06:44;11.77;;;7.60;;
25359;SDS011;13311;51.386;0.016;2022-08-06T08:11:45;10.82;;;7.10;;
25359;SDS011;13311;51.386;0.016;2022-08-06T08:16:48;8.50;;;7.40;;
25359;SDS011;13311;51.386;0.016;2022-08-06T08:21:51;8.38;;;7.38;;
25359;SDS011;13311;51.386;0.016;2022-08-06T08:26:53;9.75;;;7.07;;
25359;SDS011;13311;51.386;0.016;2022-08-06T08:31:55;10.10;;;7.40;;
25359;SDS011;13311;51.386;0.016;2022-08-06T08:36:56;9.00;;;6.65;;
25359;SDS011;13311;51.386;0.016;2022-08-06T08:47:07;10.00;;;7.32;;
25359;SDS011;13311;51.386;0.016;2022-08-06T08:52:13;8.07;;;6.95;;
25359;SDS011;13311;51.386;0.016;2022-08-06T08:57:19;8.70;;;6.38;;
25359;SDS011;13311;51.386;0.016;2022-08-06T09:02:22;8.63;;;5.70;;
25359;SDS011;13311;51.386;0.016;2022-08-06T09:07:25;6.95;;;5.05;;
25359;SDS011;13311;51.386;0.016;2022-08-06T09:12:28;8.68;;;5.07;;
25359;SDS011;13311;51.386;0.016;2022-08-06T09:17:29;5.63;;;5.07;;
25359;SDS011;13311;51.386;0.016;2022-08-06T09:22:30;4.97;;;4.32;;
25359;SDS011;13311;51.386;0.016;2022-08-06T09:27:32;8.13;;;4.97;;
25359;SDS011;13311;51.386;0.016;2022-08-06T09:32:38;5.47;;;4.70;;
25359;SDS011;13311;51.386;0.016;2022-08-06T09:37:46;7.80;;;5.45;;
25359;SDS011;13311;51.386;0.016;2022-08-06T09:42:49;5.93;;;4.28;;
25359;SDS011;13311;51.386;0.016;2022-08-06T09:48:00;5.72;;;3.88;;
25359;SDS011;13311;51.386;0.016;2022-08-06T09:53:05;6.30;;;4.18;;
25359;SDS011;13311;51.386;0.016;2022-08-06T09:58:06;7.63;;;4.53;;
25359;SDS011;13311;51.386;0.016;2022-08-06T10:03:08;5.40;;;3.80;;
25359;SDS011;13311;51.386;0.016;2022-08-06T10:08:11;4.55;;;3.60;;
25359;SDS011;13311;51.386;0.016;2022-08-06T10:23:42;4.82;;;3.58;;
25359;SDS011;13311;51.386;0.016;2022-08-06T10:28:48;3.90;;;3.50;;
25359;SDS011;13311;51.386;0.016;2022-08-06T10:34:01;5.75;;;4.03;;
25359;SDS011;13311;51.386;0.016;2022-08-06T10:39:10;4.75;;;3.60;;
25359;SDS011;13311;51.386;0.016;2022-08-06T10:44:14;5.18;;;4.03;;
25359;SDS011;13311;51.386;0.016;2022-08-06T10:49:16;6.10;;;3.72;;
25359;SDS011;13311;51.386;0.016;2022-08-06T10:54:18;5.20;;;4.32;;
25359;SDS011;13311;51.386;0.016;2022-08-06T10:59:19;7.13;;;4.20;;
25359;SDS011;13311;51.386;0.016;2022-08-06T11:04:23;4.43;;;3.80;;
25359;SDS011;13311;51.386;0.016;2022-08-06T11:09:49;6.63;;;3.80;;
25359;SDS011;13311;51.386;0.016;2022-08-06T11:15:35;4.88;;;3.80;;
25359;SDS011;13311;51.386;0.016;2022-08-06T11:20:38;5.82;;;3.75;;
25359;SDS011;13311;51.386;0.016;2022-08-06T11:25:49;5.95;;;4.35;;
25359;SDS011;13311;51.386;0.016;2022-08-06T11:30:54;4.47;;;3.50;;
25359;SDS011;13311;51.386;0.016;2022-08-06T11:35:57;4.93;;;3.67;;
25359;SDS011;13311;51.386;0.016;2022-08-06T11:41:07;6.80;;;3.90;;
25359;SDS011;13311;51.386;0.016;2022-08-06T11:51:35;5.20;;;4.60;;
25359;SDS011;13311;51.386;0.016;2022-08-06T12:02:06;4.40;;;4.00;;
25359;SDS011;13311;51.386;0.016;2022-08-06T12:07:16;7.03;;;4.03;;
25359;SDS011;13311;51.386;0.016;2022-08-06T12:17:35;4.30;;;3.90;;
25359;SDS011;13311;51.386;0.016;2022-08-06T12:22:36;4.30;;;3.90;;
25359;SDS011;13311;51.386;0.016;2022-08-06T12:27:36;4.93;;;4.43;;
25359;SDS011;13311;51.386;0.016;2022-08-06T12:32:37;6.72;;;4.25;;
25359;SDS011;13311;51.386;0.016;2022-08-06T12:37:42;4.43;;;4.00;;
25359;SDS011;13311;51.386;0.016;2022-08-06T12:42:45;3.67;;;3.33;;
25359;SDS011;13311;51.386;0.016;2022-08-06T12:47:56;5.43;;;3.80;;
25359;SDS011;13311;51.386;0.016;2022-08-06T12:53:04;6.53;;;4.25;;
25359;SDS011;13311;51.386;0.016;2022-08-06T12:58:10;6.65;;;3.88;;
25359;SDS011;13311;51.386;0.016;2022-08-06T13:03:15;4.45;;;3.67;;
25359;SDS011;13311;51.386;0.016;2022-08-06T13:08:18;3.47;;;3.17;;
25359;SDS011;13311;51.386;0.016;2022-08-06T13:13:20;4.95;;;3.30;;
25359;SDS011;13311;51.386;0.016;2022-08-06T13:18:22;4.22;;;3.30;;
25359;SDS011;13311;51.386;0.016;2022-08-06T13:23:44;5.18;;;3.70;;
25359;SDS011;13311;51.386;0.016;2022-08-06T13:34:18;4.18;;;3.40;;
25359;SDS011;13311;51.386;0.016;2022-08-06T13:54:38;3.38;;;2.95;;
25359;SDS011;13311;51.386;0.016;2022-08-06T13:59:39;2.83;;;2.50;;
25359;SDS011;13311;51.386;0.016;2022-08-06T14:04:41;4.13;;;2.78;;
25359;SDS011;13311;51.386;0.016;2022-08-06T14:09:42;3.95;;;2.95;;
25359;SDS011;13311;51.386;0.016;2022-08-06T14:14:43;2.88;;;2.60;;
25359;SDS011;13311;51.386;0.016;2022-08-06T14:19:44;3.85;;;3.00;;
25359;SDS011;13311;51.386;0.016;2022-08-06T14:24:45;7.10;;;3.30;;
25359;SDS011;13311;51.386;0.016;2022-08-06T14:29:45;5.80;;;2.80;;
25359;SDS011;13311;51.386;0.016;2022-08-06T14:34:46;4.25;;;3.70;;
25359;SDS011;13311;51.386;0.016;2022-08-06T14:39:48;3.15;;;2.67;;
25359;SDS011;13311;51.386;0.016;2022-08-06T14:44:48;2.95;;;2.45;;
25359;SDS011;13311;51.386;0.016;2022-08-06T14:49:55;2.40;;;2.20;;
25359;SDS011;13311;51.386;0.016;2022-08-06T14:54:56;10.07;;;4.15;;
25359;SDS011;13311;51.386;0.016;2022-08-06T14:59:57;3.42;;;2.60;;
25359;SDS011;13311;51.386;0.016;2022-08-06T15:04:58;3.17;;;2.88;;
25359;SDS011;13311;51.386;0.016;2022-08-06T15:09:59;3.13;;;2.63;;
25359;SDS011;13311;51.386;0.016;2022-08-06T15:14:59;3.08;;;2.60;;
25359;SDS011;13311;51.386;0.016;2022-08-06T15:20:01;2.72;;;2.38;;
25359;SDS011;13311;51.386;0.016;2022-08-06T15:25:08;2.63;;;2.40;;
25359;SDS011;13311;51.386;0.016;2022-08-06T15:30:09;3.63;;;3.10;;
25359;SDS011;13311;51.386;0.016;2022-08-06T15:35:11;3.47;;;2.60;;
25359;SDS011;13311;51.386;0.016;2022-08-06T15:40:12;4.03;;;3.00;;
25359;SDS011;13311;51.386;0.016;2022-08-06T15:45:13;5.05;;;3.58;;
25359;SDS011;13311;51.386;0.016;2022-08-06T15:50:14;4.50;;;2.90;;
25359;SDS011;13311;51.386;0.016;2022-08-06T15:55:14;3.20;;;2.88;;
25359;SDS011;13311;51.386;0.016;2022-08-06T16:00:15;3.45;;;2.85;;
25359;SDS011;13311;51.386;0.016;2022-08-06T16:05:17;5.30;;;3.42;;
25359;SDS011;13311;51.386;0.016;2022-08-06T16:10:19;4.90;;;2.83;;
25359;SDS011;13311;51.386;0.016;2022-08-06T16:15:20;6.03;;;4.03;;
25359;SDS011;13311;51.386;0.016;2022-08-06T16:20:21;4.03;;;3.63;;
25359;SDS011;13311;51.386;0.016;2022-08-06T16:25:22;5.15;;;3.47;;
25359;SDS011;13311;51.386;0.016;2022-08-06T16:30:23;5.20;;;4.38;;
25359;SDS011;13311;51.386;0.016;2022-08-06T16:35:24;9.63;;;5.07;;
25359;SDS011;13311;51.386;0.016;2022-08-06T16:40:25;9.73;;;4.85;;
25359;SDS011;13311;51.386;0.016;2022-08-06T16:45:25;6.47;;;4.85;;
25359;SDS011;13311;51.386;0.016;2022-08-06T16:50:26;3.80;;;3.20;;
25359;SDS011;13311;51.386;0.016;2022-08-06T16:55:27;7.10;;;6.03;;
25359;SDS011;13311;51.386;0.016;2022-08-06T17:00:28;5.65;;;4.55;;
25359;SDS011;13311;51.386;0.016;2022-08-06T17:05:29;4.88;;;3.70;;
25359;SDS011;13311;51.386;0.016;2022-08-06T17:10:31;3.28;;;2.78;;
25359;SDS011;13311;51.386;0.016;2022-08-06T17:15:32;4.75;;;3.67;;
25359;SDS011;13311;51.386;0.016;2022-08-06T17:20:33;5.78;;;3.00;;
25359;SDS011;13311;51.386;0.016;2022-08-06T17:25:34;5.43;;;3.40;;
25359;SDS011;13311;51.386;0.016;2022-08-06T17:30:35;5.47;;;3.60;;
25359;SDS011;13311;51.386;0.016;2022-08-06T17:35:35;5.28;;;2.72;;
25359;SDS011;13311;51.386;0.016;2022-08-06T17:40:37;3.58;;;3.00;;
25359;SDS011;13311;51.386;0.016;2022-08-06T17:45:37;5.20;;;2.50;;
25359;SDS011;13311;51.386;0.016;2022-08-06T17:50:39;4.38;;;3.03;;
25359;SDS011;13311;51.386;0.016;2022-08-06T17:55:39;3.55;;;2.50;;
25359;SDS011;13311;51.386;0.016;2022-08-06T18:00:40;4.93;;;2.80;;
25359;SDS011;13311;51.386;0.016;2022-08-06T18:05:41;3.47;;;2.85;;
25359;SDS011;13311;51.386;0.016;2022-08-06T18:10:43;4.75;;;3.08;;
25359;SDS011;13311;51.386;0.016;2022-08-06T18:15:44;3.53;;;2.53;;
25359;SDS011;13311;51.386;0.016;2022-08-06T18:20:45;3.47;;;2.88;;
25359;SDS011;13311;51.386;0.016;2022-08-06T18:25:46;2.80;;;2.50;;
25359;SDS011;13311;51.386;0.016;2022-08-06T18:30:48;2.63;;;2.40;;
25359;SDS011;13311;51.386;0.016;2022-08-06T18:35:49;3.22;;;2.45;;
25359;SDS011;13311;51.386;0.016;2022-08-06T18:40:50;3.85;;;2.13;;
25359;SDS011;13311;51.386;0.016;2022-08-06T18:45:51;6.53;;;3.22;;
25359;SDS011;13311;51.386;0.016;2022-08-06T18:50:52;5.25;;;3.13;;
25359;SDS011;13311;51.386;0.016;2022-08-06T18:55:57;4.55;;;3.13;;
25359;SDS011;13311;51.386;0.016;2022-08-06T19:00:58;6.93;;;3.13;;
25359;SDS011;13311;51.386;0.016;2022-08-06T19:05:58;5.63;;;2.88;;
25359;SDS011;13311;51.386;0.016;2022-08-06T19:10:59;7.10;;;3.47;;
25359;SDS011;13311;51.386;0.016;2022-08-06T19:16:01;8.77;;;3.92;;
25359;SDS011;13311;51.386;0.016;2022-08-06T19:21:03;6.45;;;2.88;;
25359;SDS011;13311;51.386;0.016;2022-08-06T19:26:04;5.25;;;3.15;;
25359;SDS011;13311;51.386;0.016;2022-08-06T19:31:05;3.50;;;3.10;;
25359;SDS011;13311;51.386;0.016;2022-08-06T19:36:06;11.27;;;3.97;;
25359;SDS011;13311;51.386;0.016;2022-08-06T19:41:08;6.97;;;3.28;;
25359;SDS011;13311;51.386;0.016;2022-08-06T19:46:09;6.85;;;3.70;;
25359;SDS011;13311;51.386;0.016;2022-08-06T19:51:10;4.88;;;3.90;;
25359;SDS011;13311;51.386;0.016;2022-08-06T19:56:10;8.90;;;3.35;;
25359;SDS011;13311;51.386;0.016;2022-08-06T20:01:11;6.75;;;3.50;;
25359;SDS011;13311;51.386;0.016;2022-08-06T20:06:14;6.95;;;4.07;;
25359;SDS011;13311;51.386;0.016;2022-08-06T20:11:15;6.72;;;3.67;;
25359;SDS011;13311;51.386;0.016;2022-08-06T20:16:16;6.15;;;3.70;;
25359;SDS011;13311;51.386;0.016;2022-08-06T20:21:17;7.93;;;3.50;;
25359;SDS011;13311;51.386;0.016;2022-08-06T20:26:18;5.20;;;2.85;;
25359;SDS011;13311;51.386;0.016;2022-08-06T20:31:19;5.70;;;3.85;;
25359;SDS011;13311;51.386;0.016;2022-08-06T20:36:21;7.28;;;3.42;;
25359;SDS011;13311;51.386;0.016;2022-08-06T20:41:21;9.15;;;3.83;;
25359;SDS011;13311;51.386;0.016;2022-08-06T20:46:22;8.13;;;3.80;;
25359;SDS011;13311;51.386;0.016;2022-08-06T20:51:23;11.13;;;5.47;;
25359;SDS011;13311;51.386;0.016;2022-08-06T20:56:25;11.07;;;5.80;;
25359;SDS011;13311;51.386;0.016;2022-08-06T21:01:26;8.88;;;5.72;;
25359;SDS011;13311;51.386;0.016;2022-08-06T21:06:27;10.77;;;5.30;;
25359;SDS011;13311;51.386;0.016;2022-08-06T21:11:28;9.85;;;5.65;;
25359;SDS011;13311;51.386;0.016;2022-08-06T21:16:28;10.45;;;5.05;;
25359;SDS011;13311;51.386;0.016;2022-08-06T21:21:30;7.63;;;4.60;;
25359;SDS011;13311;51.386;0.016;2022-08-06T21:26:31;8.20;;;4.45;;
25359;SDS011;13311;51.386;0.016;2022-08-06T21:31:32;8.50;;;4.20;;
25359;SDS011;13311;51.386;0.016;2022-08-06T21:36:33;8.70;;;4.40;;
25359;SDS011;13311;51.386;0.016;2022-08-06T21:41:33;5.95;;;4.43;;
25359;SDS011;13311;51.386;0.016;2022-08-06T21:46:34;6.68;;;4.30;;
25359;SDS011;13311;51.386;0.016;2022-08-06T21:51:35;7.43;;;4.88;;
25359;SDS011;13311;51.386;0.016;2022-08-06T21:56:36;7.72;;;4.50;;
25359;SDS011;13311;51.386;0.016;2022-08-06T22:01:36;11.55;;;5.25;;
25359;SDS011;13311;51.386;0.016;2022-08-06T22:06:37;10.85;;;5.28;;
25359;SDS011;13311;51.386;0.016;2022-08-06T22:11:38;9.13;;;5.43;;
25359;SDS011;13311;51.386;0.016;2022-08-06T22:16:39;12.23;;;5.28;;
25359;SDS011;13311;51.386;0.016;2022-08-06T22:21:39;13.85;;;4.95;;
25359;SDS011;13311;51.386;0.016;2022-08-06T22:26:41;8.80;;;5.55;;
25359;SDS011;13311;51.386;0.016;2022-08-06T22:31:42;12.60;;;5.63;;
25359;SDS011;13311;51.386;0.016;2022-08-06T22:36:42;9.38;;;5.00;;
25359;SDS011;13311;51.386;0.016;2022-08-06T22:41:43;8.57;;;4.80;;
25359;SDS011;13311;51.386;0.016;2022-08-06T22:46:44;7.80;;;4.78;;
25359;SDS011;13311;51.386;0.016;2022-08-06T22:51:45;7.22;;;4.88;;
25359;SDS011;13311;51.386;0.016;2022-08-06T22:56:45;7.32;;;5.00;;
25359;SDS011;13311;51.386;0.016;2022-08-06T23:01:46;7.32;;;5.07;;
25359;SDS011;13311;51.386;0.016;2022-08-06T23:06:47;6.45;;;4.65;;
25359;SDS011;13311;51.386;0.016;2022-08-06T23:11:47;10.55;;;5.10;;
25359;SDS011;13311;51.386;0.016;2022-08-06T23:16:48;7.97;;;5.22;;
25359;SDS011;13311;51.386;0.016;2022-08-06T23:21:49;5.85;;;4.40;;
25359;SDS011;13311;51.386;0.016;2022-08-06T23:26:50;7.75;;;4.82;;
25359;SDS011;13311;51.386;0.016;2022-08-06T23:31:50;5.45;;;4.25;;
25359;SDS011;13311;51.386;0.016;2022-08-06T23:36:52;7.95;;;4.72;;
25359;SDS011;13311;51.386;0.016;2022-08-06T23:41:52;8.50;;;5.47;;
25359;SDS011;13311;51.386;0.016;2022-08-06T23:46:53;5.47;;;4.20;;
25359;SDS011;13311;51.386;0.016;2022-08-06T23:51:54;5.30;;;3.88;;
25359;SDS011;13311;51.386;0.016;2022-08-06T23:56:55;5.15;;;4.43;;
